Time;durP1;ratioP1;P1;durP2;ratioP2;P2;SDS_P1;SDS_P2;PMS_P1;PMS_P2;Temp;Humidity;BMP_temperature;BMP_pressure;BME280_temperature;BME280_humidity;BME280_pressure;Samples;Min_cycle;Max_cycle;Signal;HPM_P1;HPM_P2
2023/09/27 00:00:37;;;;;;;7.03;3.58;;;;;;;20.18;44.92;94188.09;5091732;28;20034;-79
2023/09/27 00:03:04;;;;;;;8.15;3.42;;;;;;;20.10;44.78;94178.28;5085676;27;20462;-79
2023/09/27 00:05:29;;;;;;;10.43;3.55;;;;;;;20.14;44.85;94187.25;5088740;28;20484;-79
2023/09/27 00:07:56;;;;;;;10.52;3.33;;;;;;;20.22;44.82;94198.94;5085385;27;20123;-79
2023/09/27 00:10:22;;;;;;;7.82;3.90;;;;;;;20.16;44.72;94195.72;5073428;28;20075;-80
2023/09/27 00:12:48;;;;;;;8.10;3.47;;;;;;;19.96;44.76;94175.38;5063613;28;20123;-79
2023/09/27 00:15:14;;;;;;;13.40;3.53;;;;;;;19.94;45.02;94183.88;5067462;28;20035;-79
2023/09/27 00:17:41;;;;;;;13.10;3.53;;;;;;;20.05;45.17;94194.78;5091396;27;20038;-80
2023/09/27 00:20:15;;;;;;;12.70;3.50;;;;;;;20.02;45.34;94188.22;5072464;28;20032;-79
2023/09/27 00:22:56;;;;;;;10.32;3.78;;;;;;;19.76;45.29;94155.81;5063045;28;20040;-80
2023/09/27 00:25:21;;;;;;;13.95;4.93;;;;;;;19.92;45.21;94182.66;5066081;28;20391;-79
2023/09/27 00:27:47;;;;;;;10.90;3.83;;;;;;;19.96;45.33;94180.78;5065710;28;20071;-80
2023/09/27 00:30:14;;;;;;;15.98;4.70;;;;;;;19.93;45.32;94176.13;5063839;28;20048;-80
2023/09/27 00:32:40;;;;;;;7.35;3.95;;;;;;;19.89;45.36;94164.50;5067130;28;20035;-79
2023/09/27 00:35:11;;;;;;;10.05;3.80;;;;;;;19.89;45.29;94183.38;5063761;28;20032;-80
2023/09/27 00:37:37;;;;;;;7.68;3.60;;;;;;;19.84;44.95;94181.78;5095798;27;20495;-79
2023/09/27 00:40:03;;;;;;;7.15;3.28;;;;;;;19.77;45.34;94181.66;5064958;28;20047;-79
2023/09/27 00:42:29;;;;;;;9.40;3.00;;;;;;;19.84;44.38;94181.00;5064852;28;20052;-79
2023/09/27 00:44:54;;;;;;;8.75;2.28;;;;;;;19.85;43.67;94179.84;5066569;28;20500;-79
2023/09/27 00:47:20;;;;;;;7.40;2.92;;;;;;;19.65;43.84;94147.53;5066559;28;20020;-79
2023/09/27 00:49:47;;;;;;;11.68;3.40;;;;;;;19.69;43.67;94145.69;5065362;28;20470;-82
2023/09/27 00:52:13;;;;;;;7.95;3.35;;;;;;;19.66;43.65;94146.41;5065081;28;20039;-81
2023/09/27 00:54:39;;;;;;;8.70;3.25;;;;;;;19.73;43.26;94161.94;5065393;28;20032;-79
2023/09/27 00:57:05;;;;;;;7.93;3.25;;;;;;;19.64;43.07;94159.50;5063729;28;20123;-79
2023/09/27 00:59:31;;;;;;;8.38;3.80;;;;;;;19.75;43.22;94173.91;5066234;28;20121;-81
2023/09/27 01:01:56;;;;;;;11.40;3.38;;;;;;;19.74;43.26;94168.91;5067213;28;20067;-81
2023/09/27 01:04:22;;;;;;;14.30;2.88;;;;;;;19.74;43.47;94164.28;5066713;28;22236;-81
2023/09/27 01:06:49;;;;;;;6.57;3.33;;;;;;;19.71;43.34;94159.59;5064364;28;20483;-81
2023/09/27 01:09:15;;;;;;;12.00;3.50;;;;;;;19.79;43.22;94165.91;5064944;28;20510;-81
2023/09/27 01:11:41;;;;;;;10.65;4.15;;;;;;;19.69;42.67;94161.88;5062398;28;20056;-81
2023/09/27 01:14:10;;;;;;;7.47;2.60;;;;;;;19.75;42.65;94168.50;5064562;28;20522;-81
2023/09/27 01:16:36;;;;;;;5.65;2.78;;;;;;;19.77;42.55;94167.38;5065490;28;20063;-81
2023/09/27 01:19:04;;;;;;;15.35;3.67;;;;;;;19.78;42.18;94179.75;5065312;28;20040;-81
2023/09/27 01:21:29;;;;;;;4.10;2.85;;;;;;;19.77;41.65;94170.84;5066159;28;21029;-81
2023/09/27 01:23:55;;;;;;;12.68;3.38;;;;;;;19.77;41.62;94162.75;5062735;28;20182;-80
2023/09/27 01:26:23;;;;;;;7.85;2.75;;;;;;;19.82;41.45;94177.88;5066774;28;20409;-81
2023/09/27 01:28:48;;;;;;;7.65;3.20;;;;;;;19.79;41.71;94174.00;5063616;28;20135;-81
2023/09/27 01:31:14;;;;;;;6.28;2.92;;;;;;;19.70;41.70;94170.78;5069573;28;20070;-81
2023/09/27 01:33:40;;;;;;;8.70;2.40;;;;;;;19.62;41.81;94156.38;5067727;28;20032;-81
2023/09/27 01:36:06;;;;;;;7.60;2.90;;;;;;;19.71;41.81;94162.28;5067425;28;20385;-81
2023/09/27 01:38:31;;;;;;;9.02;4.05;;;;;;;19.83;41.73;94187.53;5069112;28;20038;-81
2023/09/27 01:40:57;;;;;;;7.25;3.13;;;;;;;19.83;41.35;94176.72;5068589;28;20343;-81
2023/09/27 01:43:23;;;;;;;7.55;3.08;;;;;;;19.71;41.72;94186.56;5069985;28;20036;-81
2023/09/27 01:45:48;;;;;;;11.98;3.88;;;;;;;19.75;41.81;94178.53;5070091;28;20044;-81
2023/09/27 01:48:15;;;;;;;4.30;3.03;;;;;;;19.77;41.76;94178.19;5068972;28;20042;-81
2023/09/27 01:50:40;;;;;;;5.05;2.80;;;;;;;19.79;41.58;94170.50;5069689;28;20055;-81
2023/09/27 01:53:05;;;;;;;11.45;3.08;;;;;;;19.75;41.44;94168.50;5067063;28;20143;-81
2023/09/27 01:55:32;;;;;;;7.45;3.25;;;;;;;19.85;41.31;94179.84;5070559;28;20036;-80
2023/09/27 01:57:57;;;;;;;6.53;2.67;;;;;;;19.85;41.87;94179.84;5069698;28;20805;-81
2023/09/27 02:00:23;;;;;;;8.27;2.80;;;;;;;19.78;41.67;94163.53;5065862;28;20040;-81
2023/09/27 02:02:59;;;;;;;8.90;3.17;;;;;;;19.82;41.85;94169.78;5071356;28;20032;-81
2023/09/27 02:05:28;;;;;;;15.77;3.75;;;;;;;19.75;42.01;94171.22;5069956;28;20040;-81
2023/09/27 02:07:54;;;;;;;7.68;2.72;;;;;;;19.78;42.34;94166.25;5073579;28;20090;-81
2023/09/27 02:10:20;;;;;;;7.93;2.80;;;;;;;19.69;42.19;94151.09;5080707;28;20035;-81
2023/09/27 02:12:46;;;;;;;12.10;3.53;;;;;;;19.66;42.24;94149.09;5092206;28;20084;-81
2023/09/27 02:15:13;;;;;;;12.85;3.33;;;;;;;19.69;42.33;94156.50;5086440;28;20076;-81
2023/09/27 02:17:39;;;;;;;10.43;3.72;;;;;;;19.59;42.38;94146.31;5087745;28;20028;-81
2023/09/27 02:20:17;;;;;;;7.80;3.15;;;;;;;19.77;42.57;94178.19;5089403;28;20038;-81
2023/09/27 02:22:44;;;;;;;8.15;3.10;;;;;;;19.66;42.60;94173.38;5083731;28;20028;-81
2023/09/27 02:25:11;;;;;;;11.60;3.65;;;;;;;19.66;42.84;94176.09;5087984;28;20048;-81
2023/09/27 02:27:37;;;;;;;7.68;3.78;;;;;;;19.54;43.12;94159.31;5095693;27;20039;-81
2023/09/27 02:30:06;;;;;;;18.27;3.42;;;;;;;19.68;43.15;94183.81;5086818;28;20062;-81
2023/09/27 02:32:31;;;;;;;6.88;2.85;;;;;;;19.53;43.42;94160.44;5095406;28;20479;-81
2023/09/27 02:34:57;;;;;;;12.13;3.78;;;;;;;19.57;43.55;94180.16;5088320;28;20043;-81
2023/09/27 02:37:23;;;;;;;11.73;3.55;;;;;;;19.48;43.38;94166.16;5087733;28;20514;-81
2023/09/27 02:39:48;;;;;;;10.00;3.38;;;;;;;19.45;43.62;94164.97;5090488;28;20028;-80
2023/09/27 02:42:14;;;;;;;8.02;3.15;;;;;;;19.55;44.00;94188.66;5086306;28;20629;-80
2023/09/27 02:44:40;;;;;;;7.20;3.40;;;;;;;19.50;43.97;94188.94;5088520;28;20020;-81
2023/09/27 02:47:07;;;;;;;13.60;3.65;;;;;;;19.47;43.93;94186.94;5087928;28;20137;-81
2023/09/27 02:49:34;;;;;;;10.30;3.47;;;;;;;19.47;44.34;94197.75;5088995;28;20036;-81
2023/09/27 02:52:00;;;;;;;8.90;4.68;;;;;;;19.42;44.49;94200.69;5117467;27;20063;-81
2023/09/27 02:54:30;;;;;;;12.48;5.15;;;;;;;19.38;44.96;94199.88;5090018;27;20574;-81
2023/09/27 02:56:56;;;;;;;8.30;3.83;;;;;;;19.31;44.80;94199.75;5087911;28;20027;-81
2023/09/27 02:59:21;;;;;;;10.02;4.50;;;;;;;19.21;44.85;94189.56;5089958;28;20023;-81
2023/09/27 03:01:46;;;;;;;10.80;3.78;;;;;;;19.28;44.82;94205.84;5085091;28;20043;-81
2023/09/27 03:04:15;;;;;;;8.95;3.53;;;;;;;19.20;45.09;94204.19;5088994;28;20777;-81
2023/09/27 03:06:41;;;;;;;8.23;3.45;;;;;;;19.19;44.95;94208.00;5086983;28;20039;-81
2023/09/27 03:09:08;;;;;;;7.40;3.20;;;;;;;18.94;45.18;94164.41;5090288;28;20039;-81
2023/09/27 03:11:34;;;;;;;8.77;3.15;;;;;;;19.12;45.50;94210.56;5086682;28;20059;-80
2023/09/27 03:14:00;;;;;;;9.38;4.07;;;;;;;19.08;45.23;94205.09;5087620;28;20229;-80
2023/09/27 03:16:27;;;;;;;6.47;3.10;;;;;;;19.10;45.24;94212.84;5085450;28;20027;-81
2023/09/27 03:18:54;;;;;;;6.05;3.47;;;;;;;19.01;45.05;94201.50;5077829;28;20033;-80
2023/09/27 03:21:24;;;;;;;10.70;3.70;;;;;;;19.04;45.11;94211.56;5071270;28;20079;-79
2023/09/27 03:23:49;;;;;;;6.50;3.45;;;;;;;18.97;45.08;94204.13;5094424;28;20019;-80
2023/09/27 03:26:14;;;;;;;5.60;3.78;;;;;;;18.95;45.30;94205.63;5088741;28;20050;-80
2023/09/27 03:28:40;;;;;;;7.65;3.88;;;;;;;18.80;45.15;94180.31;5088336;28;20052;-80
2023/09/27 03:31:08;;;;;;;10.15;5.10;;;;;;;18.79;45.10;94184.91;5096234;28;20511;-80
2023/09/27 03:33:33;;;;;;;9.73;3.13;;;;;;;18.89;44.81;94202.44;5087280;28;20155;-79
2023/09/27 03:36:03;;;;;;;14.88;3.42;;;;;;;18.88;44.54;94204.34;5090634;28;20051;-80
2023/09/27 03:38:28;;;;;;;11.25;3.35;;;;;;;18.83;44.83;94201.94;5085761;28;20435;-80
2023/09/27 03:40:54;;;;;;;6.63;3.55;;;;;;;18.68;44.73;94199.28;5090388;27;20150;-80
2023/09/27 03:43:19;;;;;;;5.60;3.70;;;;;;;18.76;44.79;94215.28;5119051;27;20032;-80
2023/09/27 03:45:45;;;;;;;7.95;3.13;;;;;;;18.74;44.78;94209.47;5087763;28;20099;-80
2023/09/27 03:48:10;;;;;;;9.95;4.00;;;;;;;18.60;45.01;94198.38;5085636;28;20027;-80
2023/09/27 03:50:35;;;;;;;12.40;3.45;;;;;;;18.67;44.81;94209.28;5087486;28;20020;-80
2023/09/27 03:53:01;;;;;;;12.07;4.28;;;;;;;18.70;44.97;94227.47;5087049;28;20463;-80
2023/09/27 03:55:27;;;;;;;15.15;4.53;;;;;;;18.65;45.04;94216.94;5091798;28;20085;-80
2023/09/27 03:57:53;;;;;;;9.43;4.05;;;;;;;18.54;45.16;94209.75;5086354;28;20078;-79
2023/09/27 04:00:18;;;;;;;10.13;3.63;;;;;;;18.59;45.31;94217.56;5088726;28;20106;-80
2023/09/27 04:02:44;;;;;;;17.38;5.80;;;;;;;18.54;45.44;94218.63;5085581;28;20736;-80
2023/09/27 04:05:11;;;;;;;9.55;3.75;;;;;;;18.56;45.31;94229.84;5087657;27;20059;-80
2023/09/27 04:07:41;;;;;;;11.52;4.45;;;;;;;18.48;45.21;94218.13;5086348;28;20617;-79
2023/09/27 04:10:07;;;;;;;8.65;4.43;;;;;;;18.48;45.46;94223.50;5092050;28;20515;-79
2023/09/27 04:12:36;;;;;;;9.35;4.00;;;;;;;18.48;45.27;94224.66;5086066;28;20094;-80
2023/09/27 04:15:08;;;;;;;8.65;3.22;;;;;;;18.44;45.02;94219.19;5088544;28;20054;-79
2023/09/27 04:17:33;;;;;;;13.38;3.97;;;;;;;18.39;45.18;94214.06;5088480;28;20020;-80
2023/09/27 04:19:59;;;;;;;13.50;3.70;;;;;;;18.38;45.13;94217.91;5087057;28;21074;-80
2023/09/27 04:22:24;;;;;;;9.13;3.85;;;;;;;18.47;45.35;94226.56;5090630;28;20599;-80
2023/09/27 04:24:50;;;;;;;5.20;2.97;;;;;;;18.44;45.13;94228.03;5088175;28;20035;-79
2023/09/27 04:27:15;;;;;;;7.55;4.05;;;;;;;18.37;45.31;94210.97;5086047;28;20158;-80
2023/09/27 04:29:41;;;;;;;11.63;3.33;;;;;;;18.38;45.46;94215.22;5084591;28;20134;-80
2023/09/27 04:32:06;;;;;;;11.38;3.90;;;;;;;18.39;45.14;94216.75;5086930;28;20072;-80
2023/09/27 04:34:33;;;;;;;10.07;3.67;;;;;;;18.34;45.47;94223.22;5085904;28;20047;-80
2023/09/27 04:36:58;;;;;;;11.10;4.03;;;;;;;18.40;45.48;94232.56;5085861;28;20688;-79
2023/09/27 04:39:27;;;;;;;10.52;3.92;;;;;;;18.51;45.42;94238.19;5087704;28;20036;-80
2023/09/27 04:41:55;;;;;;;13.45;4.28;;;;;;;18.53;45.68;94241.31;5086828;28;20642;-81
2023/09/27 04:44:21;;;;;;;6.93;4.25;;;;;;;18.56;45.34;94243.31;5085597;28;20044;-80
2023/09/27 04:46:46;;;;;;;9.60;3.53;;;;;;;18.45;45.44;94226.13;5087202;28;20520;-79
2023/09/27 04:49:11;;;;;;;12.40;3.25;;;;;;;18.42;45.54;94218.78;5089004;28;20032;-80
2023/09/27 04:51:37;;;;;;;15.80;4.53;;;;;;;18.59;45.58;94237.22;5084708;28;20039;-80
2023/09/27 04:54:03;;;;;;;11.73;3.92;;;;;;;18.63;45.88;94246.13;5088970;28;20031;-80
2023/09/27 04:56:30;;;;;;;10.15;4.25;;;;;;;18.63;45.82;94246.13;5087060;28;20016;-79
2023/09/27 04:58:58;;;;;;;13.40;4.18;;;;;;;18.61;46.11;94253.81;5091762;28;20506;-80
2023/09/27 05:01:24;;;;;;;8.77;4.13;;;;;;;18.63;45.92;94251.53;5092330;28;20513;-79
2023/09/27 05:03:50;;;;;;;8.80;4.50;;;;;;;18.68;46.08;94259.31;5088181;28;20066;-80
2023/09/27 05:06:15;;;;;;;9.93;4.85;;;;;;;18.71;46.18;94257.88;5088349;28;20531;-80
2023/09/27 05:08:41;;;;;;;11.18;3.85;;;;;;;18.74;46.21;94257.94;5093746;28;20510;-80
2023/09/27 05:11:06;;;;;;;14.85;5.05;;;;;;;18.63;46.23;94229.97;5087713;28;20050;-79
2023/09/27 05:13:31;;;;;;;14.30;5.18;;;;;;;18.70;46.09;94242.81;5094378;28;20028;-80
2023/09/27 05:15:57;;;;;;;15.65;4.65;;;;;;;18.82;45.92;94256.19;5089801;28;20040;-80
2023/09/27 05:18:22;;;;;;;6.63;3.78;;;;;;;18.73;46.15;94234.06;5089008;28;20028;-80
2023/09/27 05:20:48;;;;;;;13.73;4.82;;;;;;;18.63;45.89;94221.91;5088113;28;20019;-80
2023/09/27 05:23:13;;;;;;;10.52;4.47;;;;;;;18.91;45.85;94246.00;5092353;28;20075;-80
2023/09/27 05:25:38;;;;;;;15.57;4.82;;;;;;;18.80;46.00;94235.00;5086810;27;20514;-79
2023/09/27 05:28:04;;;;;;;9.23;4.55;;;;;;;18.84;46.25;94241.22;5087492;28;20262;-80
2023/09/27 05:30:31;;;;;;;11.88;5.22;;;;;;;18.77;46.45;94254.53;5089815;28;20071;-80
2023/09/27 05:32:57;;;;;;;9.13;4.10;;;;;;;18.75;46.37;94248.75;5083654;28;20062;-80
2023/09/27 05:35:22;;;;;;;13.40;4.72;;;;;;;18.70;46.55;94226.66;5087007;28;20059;-80
2023/09/27 05:37:49;;;;;;;5.63;3.58;;;;;;;18.87;46.76;94251.28;5090182;27;20145;-80
2023/09/27 05:40:15;;;;;;;9.50;5.38;;;;;;;18.80;46.20;94232.28;5084826;28;20048;-80
2023/09/27 05:42:40;;;;;;;14.05;4.97;;;;;;;18.89;46.42;94249.03;5089281;28;20487;-80
2023/09/27 05:45:10;;;;;;;9.85;4.40;;;;;;;18.88;46.36;94247.47;5085813;28;20023;-79
2023/09/27 05:47:35;;;;;;;8.88;4.70;;;;;;;18.99;46.45;94257.69;5088994;28;20016;-80
2023/09/27 05:50:01;;;;;;;9.48;4.50;;;;;;;18.97;46.79;94246.50;5086588;28;20220;-80
2023/09/27 05:52:28;;;;;;;16.65;5.32;;;;;;;19.07;46.46;94253.97;5087479;28;20035;-79
2023/09/27 05:54:53;;;;;;;8.27;4.55;;;;;;;19.06;46.80;94252.44;5087023;28;20036;-79
2023/09/27 05:57:21;;;;;;;13.68;4.90;;;;;;;18.97;46.26;94249.94;5088643;28;20058;-81
2023/09/27 05:59:47;;;;;;;9.15;5.07;;;;;;;19.00;46.17;94248.47;5089580;28;20497;-80
2023/09/27 06:02:20;;;;;;;13.30;5.00;;;;;;;19.13;46.17;94261.44;5087635;28;20039;-80
2023/09/27 06:04:48;;;;;;;12.48;4.32;;;;;;;19.10;46.27;94256.75;5077448;28;20043;-80
2023/09/27 06:07:15;;;;;;;11.82;5.50;;;;;;;19.12;46.24;94267.94;5088279;28;20061;-80
2023/09/27 06:09:46;;;;;;;12.98;4.47;;;;;;;18.95;45.96;94262.22;5085199;27;20112;-80
2023/09/27 06:12:12;;;;;;;14.98;4.22;;;;;;;18.79;46.06;94254.19;5089775;28;20040;-79
2023/09/27 06:14:38;;;;;;;8.00;3.72;;;;;;;18.80;46.80;94259.25;5088074;28;20054;-79
2023/09/27 06:17:05;;;;;;;15.43;4.75;;;;;;;18.88;46.37;94257.47;5092981;28;20048;-79
2023/09/27 06:19:31;;;;;;;14.77;4.50;;;;;;;18.79;45.95;94236.13;5085662;28;20036;-82
2023/09/27 06:22:00;;;;;;;13.30;5.38;;;;;;;19.13;46.01;94268.72;5103766;27;20442;-82
2023/09/27 06:24:27;;;;;;;8.15;3.85;;;;;;;19.33;45.79;94272.97;5085070;28;20279;-81
2023/09/27 06:26:53;;;;;;;8.82;4.50;;;;;;;19.22;45.66;94274.69;5090122;28;20023;-80
2023/09/27 06:29:20;;;;;;;16.00;4.72;;;;;;;19.20;45.28;94269.66;5067938;28;20599;-81
2023/09/27 06:31:49;;;;;;;10.23;4.55;;;;;;;19.28;45.88;94265.19;5099352;27;20438;-82
2023/09/27 06:34:18;;;;;;;12.48;4.38;;;;;;;19.17;45.50;94274.97;5086972;28;20115;-81
2023/09/27 06:36:48;;;;;;;9.18;3.90;;;;;;;19.36;45.17;94288.44;5088615;28;20035;-80
2023/09/27 06:39:18;;;;;;;10.38;3.60;;;;;;;19.24;45.22;94275.13;5089377;28;20101;-81
2023/09/27 06:41:45;;;;;;;9.23;3.95;;;;;;;19.12;45.81;94264.47;5087284;28;20208;-81
2023/09/27 06:44:12;;;;;;;9.23;4.55;;;;;;;19.35;45.59;94288.81;5085584;28;20089;-81
2023/09/27 06:46:38;;;;;;;13.00;4.68;;;;;;;19.37;44.81;94263.03;5089355;28;20587;-81
2023/09/27 06:49:04;;;;;;;12.52;4.18;;;;;;;19.09;45.67;94278.66;5079807;28;20591;-80
2023/09/27 06:51:31;;;;;;;13.40;4.78;;;;;;;19.30;45.23;94279.88;5087520;28;20040;-80
2023/09/27 06:53:56;;;;;;;10.60;5.10;;;;;;;19.20;45.37;94285.84;5082064;28;20610;-79
2023/09/27 06:56:26;;;;;;;10.77;4.50;;;;;;;19.39;45.70;94290.44;5082698;28;20024;-80
2023/09/27 06:58:56;;;;;;;9.57;4.22;;;;;;;19.56;44.99;94273.03;5081449;28;20055;-80
2023/09/27 07:01:22;;;;;;;12.27;3.85;;;;;;;19.68;44.70;94268.25;5079726;28;20028;-79
2023/09/27 07:03:48;;;;;;;10.48;4.32;;;;;;;19.59;44.74;94275.81;5077987;28;20046;-79
2023/09/27 07:06:14;;;;;;;9.40;3.92;;;;;;;19.72;44.48;94279.88;5081357;28;20036;-79
2023/09/27 07:08:40;;;;;;;12.27;3.80;;;;;;;19.92;44.00;94294.09;5081903;28;20019;-80
2023/09/27 07:11:08;;;;;;;10.20;4.40;;;;;;;19.80;43.95;94269.22;5079235;28;20063;-79
2023/09/27 07:13:34;;;;;;;9.55;4.10;;;;;;;20.11;43.44;94298.66;5081318;27;20047;-79
2023/09/27 07:16:21;;;;;;;11.77;5.07;;;;;;;20.27;43.24;94290.44;5079932;28;20608;-80
2023/09/27 07:18:48;;;;;;;9.55;3.63;;;;;;;19.99;42.02;94283.44;5079971;28;20779;-79
2023/09/27 07:21:14;;;;;;;18.73;4.45;;;;;;;19.60;42.92;94277.34;5076579;28;20028;-79
2023/09/27 07:23:39;;;;;;;12.40;3.53;;;;;;;19.50;43.57;94282.56;5083742;28;20028;-80
2023/09/27 07:26:06;;;;;;;9.25;3.60;;;;;;;19.69;42.76;94274.44;5084865;28;20042;-80
2023/09/27 07:28:31;;;;;;;13.77;4.28;;;;;;;19.98;43.13;94287.28;5079830;28;20040;-79
2023/09/27 07:30:57;;;;;;;7.80;3.90;;;;;;;19.95;43.10;94287.19;5082038;28;20601;-79
2023/09/27 07:33:24;;;;;;;8.43;4.47;;;;;;;20.04;43.09;94276.94;5076645;28;20134;-79
2023/09/27 07:35:52;;;;;;;11.98;4.15;;;;;;;19.51;43.61;94268.72;5084175;28;20119;-80
2023/09/27 07:38:17;;;;;;;9.32;3.85;;;;;;;19.96;43.25;94278.75;5079891;28;20444;-79
2023/09/27 07:40:47;;;;;;;11.23;4.13;;;;;;;20.00;43.26;94289.59;5080082;28;20040;-80
2023/09/27 07:43:12;;;;;;;9.98;3.70;;;;;;;20.25;43.19;94296.22;5079614;28;20990;-80
2023/09/27 07:45:41;;;;;;;16.52;4.88;;;;;;;19.63;43.01;94281.25;5080468;28;20035;-79
2023/09/27 07:48:08;;;;;;;19.80;4.82;;;;;;;19.84;43.61;94283.56;5081355;28;20125;-79
2023/09/27 07:50:37;;;;;;;17.10;4.50;;;;;;;19.70;43.32;94298.34;5079803;28;20034;-79
2023/09/27 07:53:08;;;;;;;9.35;4.47;;;;;;;19.82;43.61;94280.44;5063875;28;20066;-79
2023/09/27 07:55:50;;;;;;;15.95;3.85;;;;;;;19.74;43.69;94295.72;5072066;28;20446;-80
2023/09/27 07:58:16;;;;;;;6.43;3.45;;;;;;;20.02;43.84;94293.50;5083080;28;20036;-80
2023/09/27 08:00:41;;;;;;;12.63;4.93;;;;;;;19.78;43.48;94276.91;5083140;28;20384;-80
2023/09/27 08:03:10;;;;;;;9.40;3.75;;;;;;;20.06;43.10;94280.06;5086576;28;20058;-79
2023/09/27 08:05:43;;;;;;;6.70;4.18;;;;;;;20.12;42.63;94292.13;5088943;28;20135;-79
2023/09/27 08:08:10;;;;;;;9.30;3.72;;;;;;;20.04;43.39;94295.84;5083891;27;20039;-79
2023/09/27 08:10:40;;;;;;;12.88;4.00;;;;;;;20.21;43.05;94278.38;5089914;28;20412;-81
2023/09/27 08:13:06;;;;;;;15.75;4.40;;;;;;;20.21;42.17;94273.78;5085677;28;20067;-81
2023/09/27 08:15:31;;;;;;;7.55;3.83;;;;;;;20.37;42.66;94292.53;5086183;28;20118;-80
2023/09/27 08:17:57;;;;;;;12.40;4.13;;;;;;;20.46;42.22;94301.94;5089301;28;20403;-81
2023/09/27 08:20:23;;;;;;;14.30;4.20;;;;;;;20.11;42.37;94282.44;5088098;28;20030;-80
2023/09/27 08:22:51;;;;;;;12.80;4.28;;;;;;;20.53;42.76;94285.81;5089618;28;20529;-81
2023/09/27 08:25:17;;;;;;;8.07;4.40;;;;;;;20.71;42.74;94288.00;5088385;28;20798;-81
2023/09/27 08:27:43;;;;;;;7.43;4.22;;;;;;;20.77;42.29;94284.63;5085989;28;20032;-81
2023/09/27 08:30:09;;;;;;;9.05;3.03;;;;;;;20.72;42.12;94271.44;5088291;28;20510;-81
2023/09/27 08:32:35;;;;;;;16.95;4.60;;;;;;;20.51;40.90;94266.50;5088826;28;20031;-81
2023/09/27 08:35:02;;;;;;;6.20;3.28;;;;;;;20.39;41.85;94288.31;5086279;28;20083;-81
2023/09/27 08:37:31;;;;;;;9.15;4.18;;;;;;;20.61;41.56;94284.00;5088662;28;20074;-80
2023/09/27 08:39:57;;;;;;;10.07;3.28;;;;;;;20.78;41.17;94263.75;5087322;28;20051;-81
2023/09/27 08:42:24;;;;;;;15.85;5.15;;;;;;;20.92;41.19;94280.22;5084982;28;20039;-81
2023/09/27 08:44:52;;;;;;;9.63;4.50;;;;;;;20.70;40.39;94267.53;5089199;28;20051;-81
2023/09/27 08:47:18;;;;;;;9.45;3.63;;;;;;;20.84;39.76;94275.81;5087909;28;20074;-81
2023/09/27 08:49:49;;;;;;;8.18;3.95;;;;;;;20.54;39.73;94281.97;5086819;28;20077;-81
2023/09/27 08:52:15;;;;;;;5.50;3.00;;;;;;;20.54;39.83;94273.09;5087807;28;20065;-81
2023/09/27 08:54:41;;;;;;;9.00;3.58;;;;;;;20.35;39.19;94276.69;5087653;28;20028;-81
2023/09/27 08:57:08;;;;;;;14.23;3.35;;;;;;;20.28;39.45;94279.28;5090019;28;20056;-80
2023/09/27 08:59:34;;;;;;;7.57;3.50;;;;;;;20.32;39.34;94247.72;5087704;28;20032;-81
2023/09/27 09:02:04;;;;;;;10.45;3.78;;;;;;;20.33;39.63;94276.28;5086936;28;20039;-81
2023/09/27 09:04:35;;;;;;;13.73;3.33;;;;;;;20.08;40.09;94258.88;5086936;28;20097;-81
2023/09/27 09:07:02;;;;;;;12.68;3.92;;;;;;;20.49;39.79;94278.81;5084786;28;20032;-81
2023/09/27 09:09:30;;;;;;;9.93;3.22;;;;;;;20.45;38.81;94264.47;5087288;28;20117;-80
2023/09/27 09:12:00;;;;;;;16.23;4.88;;;;;;;20.19;39.19;94270.63;5083617;28;20035;-81
2023/09/27 09:14:37;;;;;;;13.48;3.92;;;;;;;20.68;39.86;94275.22;5087510;28;20027;-81
2023/09/27 09:17:07;;;;;;;8.48;3.42;;;;;;;20.66;39.45;94261.28;5084742;28;20059;-82
2023/09/27 09:19:37;;;;;;;11.98;3.83;;;;;;;20.36;39.30;94263.97;5084753;28;20705;-81
2023/09/27 09:22:08;;;;;;;9.98;3.10;;;;;;;20.58;39.02;94266.59;5087116;28;20052;-81
2023/09/27 09:24:36;;;;;;;13.88;3.97;;;;;;;20.15;39.69;94264.38;5086553;28;20032;-81
2023/09/27 09:27:09;;;;;;;8.82;3.15;;;;;;;20.28;39.81;94279.28;5085829;28;20192;-81
2023/09/27 09:29:45;;;;;;;8.02;3.88;;;;;;;20.33;39.55;94260.06;5087370;28;20150;-81
2023/09/27 09:32:11;;;;;;;10.48;3.13;;;;;;;20.42;39.15;94249.78;5085671;28;20240;-81
2023/09/27 09:34:41;;;;;;;7.97;3.67;;;;;;;20.50;39.02;94264.16;5088441;28;20050;-81
2023/09/27 09:37:26;;;;;;;7.32;3.20;;;;;;;20.64;39.53;94258.94;5089344;28;20615;-81
2023/09/27 09:40:12;;;;;;;15.45;3.38;;;;;;;20.90;40.23;94250.06;5084036;28;20039;-81
2023/09/27 09:42:43;;;;;;;13.57;3.33;;;;;;;21.26;40.95;94257.44;5088244;28;20037;-81
2023/09/27 09:45:15;;;;;;;7.72;3.38;;;;;;;21.13;39.87;94237.19;5088556;28;20032;-81
2023/09/27 09:47:43;;;;;;;6.95;3.20;;;;;;;20.96;39.91;94226.97;5086618;28;20028;-81
2023/09/27 09:50:17;;;;;;;7.72;2.83;;;;;;;21.22;39.83;94251.19;5090948;28;20036;-81
2023/09/27 09:52:53;;;;;;;18.45;3.80;;;;;;;21.23;39.17;94255.47;5089326;28;20027;-81
2023/09/27 09:55:23;;;;;;;11.43;3.45;;;;;;;21.12;39.67;94230.22;5094758;28;20128;-81
2023/09/27 09:57:56;;;;;;;10.02;3.70;;;;;;;21.01;39.59;94226.63;5088399;28;20035;-82
2023/09/27 10:00:28;;;;;;;12.55;3.55;;;;;;;21.14;41.55;94243.38;5087777;28;20407;-81
2023/09/27 10:03:00;;;;;;;7.57;3.83;;;;;;;21.10;39.61;94242.56;5123407;27;20584;-81
2023/09/27 10:05:34;;;;;;;9.98;3.75;;;;;;;21.31;38.95;94238.19;5091231;28;20052;-81
2023/09/27 10:07:59;;;;;;;12.93;3.90;;;;;;;21.42;38.83;94222.81;5084590;28;20251;-81
2023/09/27 10:10:29;;;;;;;12.93;4.00;;;;;;;21.43;38.89;94197.31;5091027;28;20468;-81
2023/09/27 10:13:00;;;;;;;7.97;3.65;;;;;;;21.70;38.01;94226.97;5088267;28;20035;-81
2023/09/27 10:15:29;;;;;;;7.70;2.80;;;;;;;21.81;37.85;94217.00;5088841;28;20122;-82
2023/09/27 10:18:22;;;;;;;9.93;3.78;;;;;;;21.40;37.98;94230.53;5085974;28;20629;-78
2023/09/27 10:21:03;;;;;;;12.05;3.42;;;;;;;21.13;38.10;94236.41;5085857;28;20131;-80
2023/09/27 10:23:43;;;;;;;10.85;3.72;;;;;;;21.46;38.19;94234.44;5084829;28;20640;-81
2023/09/27 10:26:27;;;;;;;8.20;3.30;;;;;;;21.56;37.70;94229.56;5089006;28;20105;-80
2023/09/27 10:29:12;;;;;;;10.90;4.03;;;;;;;21.70;37.70;94222.34;5087411;28;20809;-81
2023/09/27 10:31:57;;;;;;;11.43;3.60;;;;;;;21.58;36.93;94219.13;5088860;28;20059;-81
2023/09/27 10:34:28;;;;;;;6.30;3.15;;;;;;;21.84;37.91;94219.75;5090316;28;20043;-81
2023/09/27 10:36:55;;;;;;;9.13;3.60;;;;;;;21.54;37.03;94218.28;5088612;28;20243;-81
2023/09/27 10:39:21;;;;;;;8.70;3.45;;;;;;;21.65;37.64;94209.16;5090882;28;20046;-81
2023/09/27 10:41:56;;;;;;;10.20;2.85;;;;;;;21.83;36.81;94206.59;5090317;28;20380;-82
2023/09/27 10:44:34;;;;;;;;;;;;;;;22.00;37.31;94197.81;5087553;28;20075;-81
2023/09/27 10:47:04;;;;;;;10.70;4.07;;;;;;;21.94;36.33;94199.34;5086246;28;20071;-81
2023/09/27 10:49:38;;;;;;;10.27;3.03;;;;;;;21.92;36.52;94200.84;5088576;27;20332;-79
2023/09/27 10:52:17;;;;;;;7.43;3.28;;;;;;;21.77;36.68;94167.47;5097977;27;20055;-80
2023/09/27 10:54:46;;;;;;;42.22;3.90;;;;;;;22.10;36.89;94191.69;5086547;28;20059;-78
2023/09/27 10:57:14;;;;;;;12.68;2.85;;;;;;;21.79;37.05;94190.31;5086607;28;20028;-78
2023/09/27 10:59:41;;;;;;;9.00;3.72;;;;;;;21.68;36.97;94185.97;5087752;28;20016;-79
2023/09/27 11:02:07;;;;;;;6.47;2.80;;;;;;;21.45;37.11;94173.38;5088982;27;20042;-79
2023/09/27 11:04:39;;;;;;;10.18;3.10;;;;;;;21.77;37.33;94179.06;5074428;27;20048;-80
2023/09/27 11:07:05;;;;;;;26.15;4.90;;;;;;;21.38;39.68;94172.53;5083654;27;20042;-81
2023/09/27 11:09:31;;;;;;;9.00;3.55;;;;;;;21.13;40.55;94174.97;5084435;28;20567;-82
2023/09/27 11:11:57;;;;;;;13.48;4.15;;;;;;;21.38;40.40;94184.13;5081541;28;20742;-81
2023/09/27 11:14:33;;;;;;;13.93;3.72;;;;;;;21.23;39.73;94170.81;5086906;27;20356;-80
2023/09/27 11:17:22;;;;;;;7.47;2.95;;;;;;;20.72;39.54;94184.16;5087341;28;20043;-80
2023/09/27 11:19:49;;;;;;;12.13;4.05;;;;;;;20.93;39.64;94176.31;5085495;28;20862;-80
2023/09/27 11:22:27;;;;;;;11.02;4.43;;;;;;;21.07;39.61;94181.88;5088410;27;20035;-81
2023/09/27 11:24:53;;;;;;;19.48;4.80;;;;;;;20.97;39.43;94142.00;5117085;27;20035;-81
2023/09/27 11:27:19;;;;;;;9.13;3.75;;;;;;;20.79;40.75;94173.41;5088440;28;20043;-80
2023/09/27 11:29:52;;;;;;;12.82;3.55;;;;;;;20.99;40.95;94170.22;5084683;28;20502;-80
2023/09/27 11:32:18;;;;;;;14.00;4.65;;;;;;;20.91;41.55;94173.22;5086906;28;20035;-81